createdAt,value
2023-03-10T00:01:38.439Z,78.02
2023-03-10T00:04:07.217Z,78.17
2023-03-10T00:06:39.399Z,78.17
2023-03-10T00:09:11.771Z,78.23
2023-03-10T00:11:48.936Z,78.27
2023-03-10T00:14:20.501Z,78.21
2023-03-10T00:16:52.161Z,78.03
2023-03-10T00:19:26.722Z,78.12
2023-03-10T00:22:02.212Z,78.19
2023-03-10T00:24:36.063Z,78.30
2023-03-10T00:27:06.136Z,78.39
2023-03-10T00:29:45.017Z,78.42
2023-03-10T00:32:16.866Z,78.51
2023-03-10T00:34:45.897Z,78.56
2023-03-10T00:37:16.319Z,78.63
2023-03-10T00:39:45.782Z,78.75
2023-03-10T00:42:15.158Z,78.89
2023-03-10T00:44:56.556Z,78.93
2023-03-10T00:47:27.766Z,79.19
2023-03-10T00:49:57.117Z,79.23
2023-03-10T00:52:28.768Z,79.19
2023-03-10T00:55:07.698Z,79.28
2023-03-10T00:57:43.014Z,79.23
2023-03-10T01:00:15.398Z,79.19
2023-03-10T01:02:45.297Z,79.34
2023-03-10T01:05:16.166Z,79.27
2023-03-10T01:07:45.022Z,79.44
2023-03-10T01:10:15.894Z,79.69
2023-03-10T01:12:44.595Z,79.77
2023-03-10T01:15:16.425Z,79.74
2023-03-10T01:17:47.466Z,79.69
2023-03-10T01:20:17.697Z,79.89
2023-03-10T01:22:46.665Z,79.88
2023-03-10T01:25:15.827Z,79.87
2023-03-10T01:27:44.682Z,80.02
2023-03-10T01:30:16.347Z,80.01
2023-03-10T01:32:49.385Z,79.99
2023-03-10T01:35:18.133Z,80.06
2023-03-10T01:37:50.266Z,80.09
2023-03-10T01:40:22.071Z,80.09
2023-03-10T01:42:50.766Z,80.13
2023-03-10T01:45:21.733Z,80.10
2023-03-10T01:47:53.266Z,80.15
2023-03-10T01:50:23.197Z,80.12
2023-03-10T01:52:57.950Z,80.20
2023-03-10T01:55:41.110Z,80.22
2023-03-10T01:58:17.458Z,80.32
2023-03-10T02:00:54.383Z,80.34
2023-03-10T02:03:34.605Z,80.30
2023-03-10T02:06:10.893Z,80.34
2023-03-10T02:09:01.681Z,80.39
2023-03-10T02:11:30.553Z,80.42
2023-03-10T02:14:04.163Z,80.51
2023-03-10T02:16:37.363Z,80.55
2023-03-10T02:19:11.909Z,80.52
2023-03-10T02:22:12.227Z,80.53
2023-03-10T02:25:58.402Z,80.54
2023-03-10T02:28:40.175Z,80.72
2023-03-10T02:31:10.816Z,80.70
2023-03-10T02:33:44.296Z,80.55
2023-03-10T02:36:27.177Z,80.65
2023-03-10T02:39:07.788Z,80.68
2023-03-10T02:41:44.298Z,80.78
2023-03-10T02:44:23.916Z,80.71
2023-03-10T02:46:52.644Z,80.69
2023-03-10T02:49:27.671Z,80.66
2023-03-10T02:51:59.463Z,80.72
2023-03-10T02:54:28.005Z,80.81
2023-03-10T02:56:59.874Z,80.89
2023-03-10T02:59:29.188Z,80.97
2023-03-10T03:01:59.063Z,81.07
2023-03-10T03:04:31.669Z,81.03
2023-03-10T03:07:06.858Z,81.05
2023-03-10T03:09:50.200Z,81.05
2023-03-10T03:12:21.102Z,81.09
2023-03-10T03:15:05.919Z,81.24
2023-03-10T03:17:41.854Z,81.18
2023-03-10T03:20:20.565Z,81.24
2023-03-10T03:22:50.421Z,81.10
2023-03-10T03:25:24.057Z,81.07
2023-03-10T03:27:55.844Z,81.22
2023-03-10T03:30:28.767Z,81.16
2023-03-10T03:33:05.725Z,81.22
2023-03-10T03:35:36.953Z,81.43
2023-03-10T03:38:11.301Z,81.52
2023-03-10T03:40:40.948Z,81.48
2023-03-10T03:43:12.679Z,81.50
2023-03-10T03:45:44.679Z,81.53
2023-03-10T03:48:17.140Z,81.51
2023-03-10T03:50:48.003Z,81.46
2023-03-10T03:53:24.897Z,81.36
2023-03-10T03:55:56.730Z,81.39
2023-03-10T03:58:26.525Z,81.36
2023-03-10T04:00:58.881Z,81.41
2023-03-10T04:03:35.282Z,81.43
2023-03-10T04:06:10.636Z,81.34
2023-03-10T04:08:40.103Z,81.33
2023-03-10T04:11:10.785Z,81.39
2023-03-10T04:13:44.241Z,81.47
2023-03-10T04:16:13.490Z,81.31
2023-03-10T04:18:54.739Z,81.29
2023-03-10T04:21:23.858Z,81.34
2023-03-10T04:23:53.678Z,81.30
2023-03-10T04:26:26.293Z,81.34
2023-03-10T04:29:01.178Z,81.35
2023-03-10T04:31:38.945Z,81.29
2023-03-10T04:34:10.374Z,81.20
2023-03-10T04:36:44.283Z,81.20
2023-03-10T04:39:16.180Z,81.24
2023-03-10T04:41:54.676Z,81.20
2023-03-10T04:44:31.809Z,81.05
2023-03-10T04:47:02.872Z,81.04
2023-03-10T04:49:34.318Z,81.12
2023-03-10T04:52:06.990Z,81.04
2023-03-10T04:54:47.063Z,81.04
2023-03-10T04:57:20.037Z,81.11
2023-03-10T04:59:51.088Z,81.00
2023-03-10T05:02:25.251Z,81.04
2023-03-10T05:04:56.504Z,80.95
2023-03-10T05:07:27.062Z,80.70
2023-03-10T05:10:02.252Z,80.77
2023-03-10T05:12:39.267Z,80.85
2023-03-10T05:15:11.833Z,80.95
2023-03-10T05:17:51.306Z,80.91
2023-03-10T05:20:20.796Z,81.06
2023-03-10T05:22:49.780Z,81.11
2023-03-10T05:25:29.818Z,81.09
2023-03-10T05:28:03.580Z,81.02
2023-03-10T05:30:32.488Z,80.96
2023-03-10T05:33:08.805Z,81.00
2023-03-10T05:35:39.023Z,80.97
2023-03-10T05:38:11.836Z,81.05
2023-03-10T05:40:44.283Z,80.88
2023-03-10T05:43:17.760Z,80.86
2023-03-10T05:45:58.593Z,80.71
2023-03-10T05:48:29.187Z,80.91
2023-03-10T05:51:07.953Z,80.86
2023-03-10T05:53:40.769Z,80.83
2023-03-10T05:56:22.794Z,80.88
2023-03-10T05:58:55.140Z,80.81
2023-03-10T06:01:30.785Z,80.77
2023-03-10T06:04:00.091Z,80.67
2023-03-10T06:06:33.210Z,80.82
2023-03-10T06:09:02.400Z,80.76
2023-03-10T06:11:35.941Z,80.95
2023-03-10T06:14:04.777Z,80.87
2023-03-10T06:16:33.341Z,80.76
2023-03-10T06:19:02.355Z,80.72
2023-03-10T06:21:39.542Z,80.71
2023-03-10T06:24:11.922Z,80.77
2023-03-10T06:26:45.925Z,80.77
2023-03-10T06:29:14.435Z,80.76
2023-03-10T06:31:43.065Z,80.73
2023-03-10T06:34:12.325Z,80.59
2023-03-10T06:36:41.265Z,80.59
2023-03-10T06:39:12.971Z,80.80
2023-03-10T06:41:41.408Z,80.67
2023-03-10T06:44:09.768Z,80.68
2023-03-10T06:46:38.952Z,80.52
2023-03-10T06:49:07.534Z,80.52
2023-03-10T06:51:36.172Z,80.46
2023-03-10T06:54:09.983Z,80.37
2023-03-10T06:56:39.313Z,80.20
2023-03-10T06:59:22.707Z,80.07
2023-03-10T07:01:58.364Z,79.85
2023-03-10T07:04:32.794Z,79.61
2023-03-10T07:07:09.073Z,79.38
2023-03-10T07:09:42.552Z,79.20
2023-03-10T07:12:12.859Z,79.06
2023-03-10T07:14:43.947Z,79.15
2023-03-10T07:17:14.513Z,79.12
2023-03-10T07:19:43.611Z,79.17
2023-03-10T07:22:14.512Z,79.12
2023-03-10T07:24:43.075Z,79.00
2023-03-10T07:27:13.745Z,78.80
2023-03-10T07:29:43.767Z,78.72
2023-03-10T07:32:12.506Z,78.53
2023-03-10T07:34:41.476Z,78.27
2023-03-10T07:37:13.546Z,78.12
2023-03-10T07:39:42.074Z,78.06
2023-03-10T07:42:10.888Z,78.10
2023-03-10T07:44:39.532Z,77.69
2023-03-10T07:47:11.785Z,77.29
2023-03-10T07:49:46.294Z,77.19
2023-03-10T07:52:18.633Z,77.01
2023-03-10T07:54:50.686Z,76.85
2023-03-10T07:57:22.460Z,76.95
2023-03-10T07:59:56.145Z,76.95
2023-03-10T08:02:24.806Z,76.84
2023-03-10T08:04:53.135Z,76.75
2023-03-10T08:07:22.279Z,76.50
2023-03-10T08:09:52.133Z,76.25
2023-03-10T08:12:36.782Z,75.97
2023-03-10T08:15:15.317Z,75.86
2023-03-10T08:17:49.956Z,75.76
2023-03-10T08:20:24.001Z,75.71
2023-03-10T08:23:02.675Z,75.35
2023-03-10T08:25:31.282Z,75.55
2023-03-10T08:28:02.521Z,75.26
2023-03-10T08:30:31.231Z,75.03
2023-03-10T08:32:59.707Z,74.59
2023-03-10T08:35:34.273Z,74.57
2023-03-10T08:38:05.504Z,74.70
2023-03-10T08:40:34.053Z,74.91
2023-03-10T08:43:02.631Z,74.91
2023-03-10T08:45:34.907Z,74.11
2023-03-10T08:48:09.803Z,73.48
2023-03-10T08:50:41.933Z,73.45
2023-03-10T08:53:12.484Z,72.93
2023-03-10T08:55:44.902Z,72.62
2023-03-10T08:58:13.153Z,72.51
2023-03-10T09:00:42.531Z,72.25
2023-03-10T09:03:11.656Z,72.28
2023-03-10T09:05:43.867Z,72.33
2023-03-10T09:08:19.172Z,72.32
2023-03-10T09:10:49.202Z,72.34
2023-03-10T09:13:21.862Z,72.13
2023-03-10T09:15:53.307Z,71.67
2023-03-10T09:18:22.475Z,71.38
2023-03-10T09:20:57.160Z,71.16
2023-03-10T09:23:29.492Z,70.92
2023-03-10T09:26:05.120Z,70.84
2023-03-10T09:28:41.283Z,70.36
2023-03-10T09:31:27.209Z,69.75
2023-03-10T09:34:05.548Z,68.73
2023-03-10T09:36:35.179Z,68.35
2023-03-10T09:39:27.471Z,68.11
2023-03-10T09:42:38.469Z,67.53
2023-03-10T09:45:48.005Z,66.79
2023-03-10T09:49:03.289Z,66.40
2023-03-10T09:51:43.885Z,65.46
2023-03-10T09:54:46.673Z,65.39
2023-03-10T09:57:23.633Z,64.73
2023-03-10T10:00:02.675Z,64.19
2023-03-10T10:02:47.407Z,63.14
2023-03-10T10:05:31.990Z,62.79
2023-03-10T10:08:21.944Z,62.46
2023-03-10T10:10:57.728Z,62.38
2023-03-10T10:13:36.028Z,62.20
2023-03-10T10:16:41.365Z,62.03
2023-03-10T10:19:22.303Z,62.01
2023-03-10T10:22:16.845Z,62.14
2023-03-10T10:25:14.723Z,62.23
2023-03-10T10:27:47.510Z,62.20
2023-03-10T10:30:42.361Z,62.01
2023-03-10T10:33:16.026Z,61.95
2023-03-10T10:36:06.819Z,62.13
2023-03-10T10:38:50.258Z,62.21
2023-03-10T10:41:40.394Z,61.98
2023-03-10T10:44:18.547Z,61.82
2023-03-10T10:47:02.278Z,61.99
2023-03-10T10:49:41.879Z,61.94
2023-03-10T10:52:31.710Z,61.75
2023-03-10T10:55:27.788Z,61.44
2023-03-10T10:58:14.020Z,61.27
2023-03-10T11:01:12.277Z,61.58
2023-03-10T11:03:48.644Z,61.40
2023-03-10T11:06:35.262Z,61.35
2023-03-10T11:09:18.210Z,61.12
2023-03-10T11:12:02.082Z,60.64
2023-03-10T11:15:01.527Z,60.29
2023-03-10T11:17:59.335Z,60.36
2023-03-10T11:20:48.897Z,60.15
2023-03-10T11:23:37.741Z,59.69
2023-03-10T11:26:34.874Z,59.44
2023-03-10T11:29:34.796Z,59.30
2023-03-10T11:32:35.903Z,59.02
2023-03-10T11:35:38.419Z,58.44
2023-03-10T11:38:41.153Z,58.46
2023-03-10T11:41:27.295Z,58.12
2023-03-10T11:44:09.447Z,57.82
2023-03-10T11:46:56.519Z,57.39
2023-03-10T11:49:40.321Z,57.11
2023-03-10T11:52:25.035Z,57.27
2023-03-10T11:55:16.284Z,57.50
2023-03-10T11:58:05.147Z,57.48
2023-03-10T12:00:52.471Z,57.29
2023-03-10T12:04:04.091Z,56.99
2023-03-10T12:06:52.247Z,56.68
2023-03-10T12:09:45.886Z,56.30
2023-03-10T12:12:34.694Z,56.41
2023-03-10T12:15:15.733Z,56.59
2023-03-10T12:17:46.870Z,56.38
2023-03-10T12:20:19.959Z,56.14
2023-03-10T12:22:50.506Z,55.96
2023-03-10T12:25:32.299Z,55.94
2023-03-10T12:28:16.094Z,55.78
2023-03-10T12:31:02.563Z,55.81
2023-03-10T12:33:34.064Z,55.82
2023-03-10T12:36:34.481Z,55.92
2023-03-10T12:39:30.859Z,55.92
2023-03-10T12:42:26.520Z,56.02
2023-03-10T12:45:14.121Z,56.21
2023-03-10T12:48:01.997Z,56.34
2023-03-10T12:50:49.836Z,56.16
2023-03-10T12:53:37.417Z,56.27
2023-03-10T12:56:11.892Z,56.60
2023-03-10T12:58:52.734Z,56.76
2023-03-10T13:01:31.297Z,56.64
2023-03-10T13:04:16.305Z,56.61
2023-03-10T13:06:47.581Z,56.64
2023-03-10T13:09:47.159Z,56.69
2023-03-10T13:12:42.604Z,56.79
2023-03-10T13:15:25.016Z,56.97
2023-03-10T13:18:20.885Z,57.17
2023-03-10T13:20:51.966Z,57.20
2023-03-10T13:23:36.450Z,57.09
2023-03-10T13:26:19.620Z,56.91
2023-03-10T13:29:03.265Z,56.73
2023-03-10T13:31:35.529Z,56.55
2023-03-10T13:34:21.705Z,56.41
2023-03-10T13:36:50.394Z,56.22
2023-03-10T13:39:27.272Z,56.04
2023-03-10T13:42:01.675Z,55.75
2023-03-10T13:44:49.757Z,55.76
2023-03-10T13:47:26.586Z,56.08
2023-03-10T13:49:59.598Z,56.19
2023-03-10T13:52:32.699Z,56.15
2023-03-10T13:55:17.088Z,56.08
2023-03-10T13:57:50.069Z,55.90
2023-03-10T14:00:22.731Z,55.92
2023-03-10T14:02:57.245Z,55.78
2023-03-10T14:05:45.438Z,55.72
2023-03-10T14:08:29.467Z,55.76
2023-03-10T14:11:41.364Z,55.87
2023-03-10T14:14:11.602Z,55.99
2023-03-10T14:16:50.872Z,56.15
2023-03-10T14:19:45.159Z,56.11
2023-03-10T14:22:40.172Z,56.27
2023-03-10T14:25:20.133Z,56.24
2023-03-10T14:27:55.513Z,56.16
2023-03-10T14:30:29.745Z,56.26
2023-03-10T14:33:00.825Z,56.30
2023-03-10T14:35:30.111Z,56.25
2023-03-10T14:38:02.272Z,56.21
2023-03-10T14:40:32.462Z,56.34
2023-03-10T14:43:02.577Z,56.54
2023-03-10T14:45:37.919Z,56.39
2023-03-10T14:48:15.193Z,56.37
2023-03-10T14:50:53.728Z,56.41
2023-03-10T14:53:27.593Z,56.42
2023-03-10T14:56:05.338Z,56.44
2023-03-10T14:58:50.641Z,56.46
2023-03-10T15:01:22.495Z,56.42
2023-03-10T15:03:56.648Z,56.45
2023-03-10T15:06:32.109Z,56.53
2023-03-10T15:09:07.538Z,56.53
2023-03-10T15:11:37.847Z,56.52
2023-03-10T15:14:21.098Z,56.61
2023-03-10T15:16:58.663Z,56.74
2023-03-10T15:19:30.544Z,56.82
2023-03-10T15:22:01.636Z,57.17
2023-03-10T15:24:34.870Z,57.25
2023-03-10T15:27:13.717Z,57.37
2023-03-10T15:29:46.892Z,57.60
2023-03-10T15:32:15.608Z,57.87
2023-03-10T15:34:48.044Z,57.91
2023-03-10T15:37:19.638Z,57.90
2023-03-10T15:39:53.456Z,57.91
2023-03-10T15:42:36.313Z,58.12
2023-03-10T15:45:08.463Z,58.31
2023-03-10T15:47:41.991Z,58.35
2023-03-10T15:50:13.187Z,58.36
2023-03-10T15:52:58.799Z,58.30
2023-03-10T15:55:36.332Z,58.39
2023-03-10T15:58:11.999Z,58.68
2023-03-10T16:00:44.082Z,58.57
2023-03-10T16:03:18.262Z,58.60
2023-03-10T16:05:50.569Z,58.45
2023-03-10T16:08:30.157Z,58.55
2023-03-10T16:11:01.700Z,58.73
2023-03-10T16:13:47.960Z,58.71
2023-03-10T16:16:22.750Z,58.94
2023-03-10T16:19:11.157Z,58.98
2023-03-10T16:21:49.501Z,59.05
2023-03-10T16:24:25.423Z,59.04
2023-03-10T16:27:02.697Z,59.27
2023-03-10T16:29:41.128Z,59.29
2023-03-10T16:32:14.820Z,59.44
2023-03-10T16:34:47.717Z,59.57
2023-03-10T16:37:26.932Z,59.57
2023-03-10T16:39:57.162Z,59.76
2023-03-10T16:42:39.994Z,59.84
2023-03-10T16:45:37.674Z,59.98
2023-03-10T16:48:32.978Z,60.20
2023-03-10T16:51:29.249Z,60.38
2023-03-10T16:54:30.565Z,60.50
2023-03-10T17:00:35.004Z,60.67
2023-03-10T17:03:48.791Z,60.68
2023-03-10T17:10:13.750Z,60.97
2023-03-10T17:12:43.925Z,61.04
2023-03-10T17:18:13.539Z,61.32
2023-03-10T17:20:52.998Z,61.43
2023-03-10T17:23:24.828Z,61.63
2023-03-10T17:25:54.557Z,61.87
2023-03-10T17:28:30.748Z,61.79
2023-03-10T17:31:12.037Z,61.98
2023-03-10T17:33:43.670Z,62.21
2023-03-10T17:36:15.522Z,62.30
2023-03-10T17:38:45.149Z,62.40
2023-03-10T17:41:16.510Z,62.66
2023-03-10T17:43:48.511Z,62.86
2023-03-10T17:46:26.917Z,63.01
2023-03-10T17:49:09.365Z,63.09
2023-03-10T17:51:44.053Z,63.15
2023-03-10T17:54:19.843Z,63.18
2023-03-10T17:56:57.272Z,63.37
2023-03-10T17:59:33.165Z,63.59
2023-03-10T18:02:05.634Z,63.62
2023-03-10T18:05:05.076Z,63.74
2023-03-10T18:07:33.975Z,63.89
2023-03-10T18:10:12.753Z,64.01
2023-03-10T18:12:44.905Z,64.04
2023-03-10T18:15:26.147Z,64.05
2023-03-10T18:18:04.343Z,64.30
2023-03-10T18:20:36.424Z,64.40
2023-03-10T18:23:08.420Z,64.47
2023-03-10T18:25:45.872Z,64.66
2023-03-10T18:28:23.167Z,64.87
2023-03-10T18:30:57.561Z,64.88
2023-03-10T18:33:31.901Z,64.89
2023-03-10T18:36:14.418Z,64.85
2023-03-10T18:38:56.829Z,65.02
2023-03-10T18:41:34.080Z,64.91
2023-03-10T18:44:08.995Z,64.87
2023-03-10T18:46:38.699Z,64.83
2023-03-10T18:49:13.509Z,64.87
2023-03-10T18:51:42.636Z,64.91
2023-03-10T18:54:11.651Z,64.97
2023-03-10T18:56:45.564Z,65.05
2023-03-10T18:59:22.934Z,65.25
2023-03-10T19:01:52.439Z,65.19
2023-03-10T19:04:27.298Z,65.14
2023-03-10T19:07:19.630Z,65.12
2023-03-10T19:09:56.697Z,65.20
2023-03-10T19:12:29.900Z,65.23
2023-03-10T19:15:07.502Z,65.46
2023-03-10T19:17:39.425Z,65.43
2023-03-10T19:20:12.745Z,65.67
2023-03-10T19:22:51.094Z,65.69
2023-03-10T19:25:23.185Z,65.66
2023-03-10T19:27:52.455Z,65.61
2023-03-10T19:30:22.119Z,65.69
2023-03-10T19:32:55.519Z,65.72
2023-03-10T19:35:34.087Z,65.57
2023-03-10T19:38:13.925Z,65.36
2023-03-10T19:40:49.786Z,65.28
2023-03-10T19:43:19.165Z,65.26
2023-03-10T19:46:20.775Z,65.26
2023-03-10T19:48:54.019Z,65.42
2023-03-10T19:51:26.188Z,65.68
2023-03-10T19:53:57.198Z,65.83
2023-03-10T19:56:26.390Z,65.96
2023-03-10T19:58:56.096Z,66.25
2023-03-10T20:01:27.391Z,66.43
2023-03-10T20:04:02.214Z,66.54
2023-03-10T20:06:31.257Z,66.68
2023-03-10T20:09:11.824Z,66.84
2023-03-10T20:11:41.660Z,67.17
2023-03-10T20:14:24.534Z,67.38
2023-03-10T20:17:01.543Z,67.39
2023-03-10T20:19:31.944Z,67.35
2023-03-10T20:22:13.977Z,67.62
2023-03-10T20:24:46.873Z,67.74
2023-03-10T20:27:18.356Z,67.85
2023-03-10T20:30:37.052Z,68.05
2023-03-10T20:33:23.363Z,68.43
2023-03-10T20:35:52.372Z,68.51
2023-03-10T20:38:26.674Z,68.53
2023-03-10T20:41:02.622Z,68.41
2023-03-10T20:43:43.629Z,68.31
2023-03-10T20:46:26.746Z,68.03
2023-03-10T20:52:17.384Z,67.88
2023-03-10T20:55:02.861Z,67.76
2023-03-10T20:57:38.360Z,67.91
2023-03-10T21:00:13.535Z,67.98
2023-03-10T21:02:54.740Z,67.98
2023-03-10T21:05:28.107Z,68.11
2023-03-10T21:08:02.818Z,68.10
2023-03-10T21:10:41.873Z,68.12
2023-03-10T21:13:51.123Z,68.11
2023-03-10T21:16:32.388Z,68.48
2023-03-10T21:19:08.152Z,68.57
2023-03-10T21:21:48.979Z,68.32
2023-03-10T21:24:28.494Z,68.36
2023-03-10T21:27:02.733Z,68.26
2023-03-10T21:29:34.634Z,68.30
2023-03-10T21:32:06.048Z,68.31
2023-03-10T21:34:35.659Z,68.26
2023-03-10T21:37:27.453Z,68.23
2023-03-10T21:40:13.080Z,68.10
2023-03-10T21:42:54.278Z,67.97
2023-03-10T21:45:40.955Z,68.04
2023-03-10T21:48:23.685Z,67.98
2023-03-10T21:51:11.524Z,67.97
2023-03-10T21:53:58.944Z,68.04
2023-03-10T21:56:36.931Z,67.95
2023-03-10T21:59:16.726Z,67.88
2023-03-10T22:02:10.420Z,67.87
2023-03-10T22:05:01.985Z,67.97
2023-03-10T22:07:54.201Z,67.88
2023-03-10T22:10:41.924Z,67.87
2023-03-10T22:13:17.656Z,68.09
2023-03-10T22:15:54.679Z,68.27
2023-03-10T22:18:29.862Z,68.26
2023-03-10T22:21:03.954Z,68.36
2023-03-10T22:23:44.578Z,68.57
2023-03-10T22:26:38.534Z,68.77
2023-03-10T22:29:11.535Z,68.95
2023-03-10T22:31:51.584Z,69.05
2023-03-10T22:34:35.434Z,69.25
2023-03-10T22:37:16.837Z,69.34
2023-03-10T22:39:55.461Z,69.57
2023-03-10T22:42:25.088Z,69.68
2023-03-10T22:45:03.570Z,69.69
2023-03-10T22:47:42.778Z,69.91
2023-03-10T22:50:45.678Z,70.03
2023-03-10T22:53:23.078Z,70.15
2023-03-10T22:55:51.589Z,70.37
2023-03-10T22:58:30.222Z,70.36
2023-03-10T23:01:04.430Z,70.28
2023-03-10T23:03:34.371Z,70.20
2023-03-10T23:06:13.304Z,70.25
2023-03-10T23:08:43.639Z,70.03
2023-03-10T23:11:15.169Z,69.70
2023-03-10T23:13:49.653Z,69.86
2023-03-10T23:16:19.442Z,69.77
2023-03-10T23:18:48.542Z,69.76
2023-03-10T23:21:22.385Z,69.68
2023-03-10T23:23:50.796Z,69.78
2023-03-10T23:26:23.952Z,69.70
2023-03-10T23:28:55.190Z,69.61
2023-03-10T23:31:23.982Z,69.52
2023-03-10T23:33:52.761Z,69.40
2023-03-10T23:36:21.190Z,69.24
2023-03-10T23:38:49.944Z,69.18
2023-03-10T23:41:18.619Z,69.19
2023-03-10T23:43:47.511Z,69.30
2023-03-10T23:46:16.297Z,69.39
2023-03-10T23:48:45.277Z,69.25
2023-03-10T23:51:16.874Z,69.27
2023-03-10T23:53:48.329Z,69.29
2023-03-10T23:56:16.844Z,69.42
2023-03-10T23:58:48.461Z,69.28
